Time;durP1;ratioP1;P1;durP2;ratioP2;P2;SDS_P1;SDS_P2;PMS_P1;PMS_P2;Temp;Humidity;BMP_temperature;BMP_pressure;BME280_temperature;BME280_humidity;BME280_pressure;Samples;Min_cycle;Max_cycle;Signal;HPM_P1;HPM_P2
2023/12/24 00:01:00;;;;;;;6.40;3.77;;;;;21.50;99708.00;;;;2062041;28;20222;-55
2023/12/24 00:02:00;;;;;;;5.50;3.47;;;;;21.50;99706.00;;;;2057977;28;20210;-55
2023/12/24 00:03:00;;;;;;;4.77;2.87;;;;;21.50;99387.00;;;;2077137;28;20570;-55
2023/12/24 00:04:00;;;;;;;6.33;3.80;;;;;21.50;99708.00;;;;2076860;28;20244;-55
2023/12/24 00:05:01;;;;;;;5.57;3.43;;;;;21.50;99711.00;;;;2077076;28;20217;-55
2023/12/24 00:06:01;;;;;;;6.20;3.90;;;;;21.50;99694.00;;;;2076500;28;20286;-55
2023/12/24 00:07:02;;;;;;;5.77;3.80;;;;;21.50;99712.00;;;;2069904;28;20723;-55
2023/12/24 00:08:02;;;;;;;5.83;3.77;;;;;21.40;99699.00;;;;2076999;28;20225;-55
2023/12/24 00:09:02;;;;;;;5.70;3.10;;;;;21.40;99703.00;;;;2076450;28;20248;-55
2023/12/24 00:10:03;;;;;;;5.03;3.60;;;;;21.50;99700.00;;;;2075587;28;20240;-55
2023/12/24 00:11:04;;;;;;;6.20;3.20;;;;;21.40;99704.00;;;;2076477;28;20229;-55
2023/12/24 00:12:06;;;;;;;5.22;3.20;;;;;21.40;99695.00;;;;2073695;28;20232;-55
2023/12/24 00:13:06;;;;;;;5.85;3.80;;;;;21.40;99695.00;;;;2077152;28;20751;-55
2023/12/24 00:14:06;;;;;;;4.50;3.23;;;;;21.40;99702.00;;;;2080341;28;20270;-55
2023/12/24 00:15:08;;;;;;;6.63;2.90;;;;;21.40;99690.00;;;;2077086;28;20225;-55
2023/12/24 00:16:08;;;;;;;5.68;3.47;;;;;21.40;99694.00;;;;2075860;28;20313;-54
2023/12/24 00:17:08;;;;;;;4.90;3.07;;;;;21.40;99691.00;;;;2060002;28;20553;-58
2023/12/24 00:18:08;;;;;;;5.20;2.90;;;;;21.40;99697.00;;;;2075668;28;20663;-56
2023/12/24 00:19:09;;;;;;;5.47;3.00;;;;;21.40;99701.00;;;;2082089;28;20692;-55
2023/12/24 00:20:09;;;;;;;5.87;3.23;;;;;21.40;99701.00;;;;2074216;28;20685;-55
2023/12/24 00:21:12;;;;;;;6.30;3.47;;;;;21.40;99700.00;;;;2071160;28;20612;-56
2023/12/24 00:22:12;;;;;;;4.88;2.60;;;;;21.40;99696.00;;;;2062253;28;20294;-55
2023/12/24 00:23:12;;;;;;;5.17;3.00;;;;;21.40;99691.00;;;;2068618;28;20210;-55
2023/12/24 00:24:13;;;;;;;5.47;2.90;;;;;21.40;99676.00;;;;2081777;28;20209;-55
2023/12/24 00:25:13;;;;;;;6.93;3.10;;;;;21.40;99677.00;;;;2077428;28;20213;-55
2023/12/24 00:26:13;;;;;;;5.07;2.83;;;;;21.40;99685.00;;;;2071710;28;20217;-55
2023/12/24 00:27:14;;;;;;;4.37;2.70;;;;;21.40;99683.00;;;;2074964;28;20252;-55
2023/12/24 00:28:14;;;;;;;4.47;2.20;;;;;21.40;99681.00;;;;2074079;28;20213;-56
2023/12/24 00:29:14;;;;;;;5.77;3.20;;;;;21.40;99686.00;;;;2068868;28;20210;-55
2023/12/24 00:30:15;;;;;;;4.83;2.70;;;;;21.40;99685.00;;;;2071813;28;20198;-55
2023/12/24 00:31:15;;;;;;;4.47;2.57;;;;;21.40;99688.00;;;;2072971;28;20832;-55
2023/12/24 00:32:16;;;;;;;5.80;3.33;;;;;21.40;99679.00;;;;2076527;28;20275;-55
2023/12/24 00:33:17;;;;;;;4.90;2.67;;;;;21.40;99692.00;;;;2078819;28;20209;-55
2023/12/24 00:34:17;;;;;;;5.17;2.77;;;;;21.40;99685.00;;;;2069104;28;20683;-55
2023/12/24 00:35:17;;;;;;;3.90;2.70;;;;;21.40;99687.00;;;;2073919;28;20206;-55
2023/12/24 00:36:18;;;;;;;5.33;2.53;;;;;21.40;99689.00;;;;2065053;28;20213;-55
2023/12/24 00:37:18;;;;;;;4.90;3.00;;;;;21.40;99682.00;;;;2072120;28;20214;-55
2023/12/24 00:38:18;;;;;;;4.40;2.57;;;;;21.40;99678.00;;;;2080211;28;20262;-55
2023/12/24 00:39:19;;;;;;;5.53;2.73;;;;;21.40;99675.00;;;;2069016;28;20239;-55
2023/12/24 00:40:19;;;;;;;3.90;2.47;;;;;21.40;99676.00;;;;2074506;28;20359;-55
2023/12/24 00:41:19;;;;;;;5.03;2.77;;;;;21.30;99679.00;;;;2067000;28;20241;-55
2023/12/24 00:42:22;;;;;;;6.03;2.50;;;;;21.30;99673.00;;;;2076286;28;20252;-55
2023/12/24 00:43:23;;;;;;;4.25;1.90;;;;;21.40;99683.00;;;;2077107;28;20707;-55
2023/12/24 00:44:24;;;;;;;4.15;2.25;;;;;21.30;99686.00;;;;2075838;28;20209;-55
2023/12/24 00:45:24;;;;;;;8.00;2.63;;;;;21.30;99674.00;;;;2073441;28;20233;-55
2023/12/24 00:46:24;;;;;;;4.90;2.23;;;;;21.30;99680.00;;;;2057919;28;20229;-55
2023/12/24 00:47:25;;;;;;;3.53;2.00;;;;;21.30;99674.00;;;;2076820;28;20697;-55
2023/12/24 00:48:25;;;;;;;5.73;2.57;;;;;21.30;99674.00;;;;2073731;28;20215;-55
2023/12/24 00:49:25;;;;;;;4.60;2.43;;;;;21.30;99681.00;;;;2068986;28;20214;-55
2023/12/24 00:50:26;;;;;;;4.90;2.20;;;;;21.30;99680.00;;;;2069298;28;20217;-55
2023/12/24 00:51:26;;;;;;;4.40;2.07;;;;;21.30;99680.00;;;;2062713;28;20210;-55
2023/12/24 00:52:26;;;;;;;3.47;1.70;;;;;21.30;99670.00;;;;2076293;28;20240;-55
2023/12/24 00:53:27;;;;;;;3.80;2.27;;;;;21.30;99680.00;;;;2078278;28;20210;-55
2023/12/24 00:54:27;;;;;;;4.60;2.43;;;;;21.30;99667.00;;;;2074382;28;20210;-55
2023/12/24 00:55:28;;;;;;;4.40;2.47;;;;;21.30;99682.00;;;;2073880;28;20206;-55
2023/12/24 00:56:28;;;;;;;4.00;2.17;;;;;21.30;99685.00;;;;2068849;28;20327;-55
2023/12/24 00:57:28;;;;;;;3.60;2.00;;;;;21.30;99689.00;;;;2078530;28;20226;-55
2023/12/24 00:58:29;;;;;;;6.57;2.50;;;;;21.30;99689.00;;;;2078032;28;20901;-55
2023/12/24 00:59:29;;;;;;;3.80;1.60;;;;;21.30;99698.00;;;;2084461;28;20221;-56
2023/12/24 01:00:29;;;;;;;3.60;2.23;;;;;21.30;99683.00;;;;2072472;28;20229;-57
2023/12/24 01:01:30;;;;;;;4.97;2.00;;;;;21.30;99692.00;;;;2073126;28;20238;-53
2023/12/24 01:02:30;;;;;;;4.83;2.37;;;;;21.30;99693.00;;;;2068756;28;20222;-52
2023/12/24 01:03:30;;;;;;;4.70;2.07;;;;;21.30;99698.00;;;;2069555;28;20234;-57
2023/12/24 01:04:31;;;;;;;3.40;1.77;;;;;21.30;99686.00;;;;2060683;28;20239;-55
2023/12/24 01:05:31;;;;;;;3.87;2.17;;;;;21.20;99690.00;;;;2064138;28;20221;-56
2023/12/24 01:06:31;;;;;;;4.07;2.27;;;;;21.30;99680.00;;;;2070871;28;20228;-55
2023/12/24 01:07:32;;;;;;;3.87;1.80;;;;;21.30;99699.00;;;;2071093;28;20220;-56
2023/12/24 01:08:32;;;;;;;3.03;2.00;;;;;21.30;99671.00;;;;2066304;28;20219;-53
2023/12/24 01:09:32;;;;;;;3.30;2.27;;;;;21.30;99692.00;;;;2079185;28;20225;-54
2023/12/24 01:10:33;;;;;;;3.70;1.77;;;;;21.30;99691.00;;;;2081135;28;20217;-55
2023/12/24 01:11:33;;;;;;;4.13;1.67;;;;;21.30;99698.00;;;;2069427;28;20248;-54
2023/12/24 01:12:33;;;;;;;4.43;1.80;;;;;21.30;99677.00;;;;2085058;28;20228;-52
2023/12/24 01:13:34;;;;;;;4.40;1.90;;;;;21.30;99678.00;;;;2074661;28;20221;-56
2023/12/24 01:14:34;;;;;;;3.43;1.87;;;;;21.20;99683.00;;;;2073031;28;20232;-54
2023/12/24 01:15:35;;;;;;;3.03;1.83;;;;;21.20;99691.00;;;;2066567;28;20222;-54
2023/12/24 01:16:39;;;;;;;4.00;2.10;;;;;21.30;99672.00;;;;2060190;28;20217;-56
2023/12/24 01:17:39;;;;;;;3.55;1.67;;;;;21.20;99658.00;;;;2085272;28;20585;-55
2023/12/24 01:18:40;;;;;;;3.77;1.80;;;;;21.20;99677.00;;;;2077525;28;20222;-55
2023/12/24 01:19:40;;;;;;;2.87;1.40;;;;;21.20;99667.00;;;;2080688;28;20750;-57
2023/12/24 01:20:41;;;;;;;3.43;1.53;;;;;21.20;99663.00;;;;2076026;28;20222;-52
2023/12/24 01:21:41;;;;;;;6.47;1.80;;;;;21.20;99662.00;;;;2069211;28;20263;-55
2023/12/24 01:22:42;;;;;;;4.33;1.60;;;;;21.20;99681.00;;;;2074798;28;20223;-55
2023/12/24 01:23:42;;;;;;;3.63;1.50;;;;;21.20;99669.00;;;;2071107;28;20213;-63
2023/12/24 01:24:42;;;;;;;4.37;1.97;;;;;21.20;99666.00;;;;2076569;28;20296;-61
2023/12/24 01:25:43;;;;;;;2.70;1.40;;;;;21.20;99663.00;;;;2077175;28;20230;-58
2023/12/24 01:26:43;;;;;;;3.73;1.60;;;;;21.20;99665.00;;;;2070479;28;20221;-53
2023/12/24 01:27:43;;;;;;;2.23;1.33;;;;;21.20;99659.00;;;;2087296;28;20220;-53
2023/12/24 01:28:43;;;;;;;3.40;1.40;;;;;21.20;99662.00;;;;2076226;28;20230;-54
2023/12/24 01:29:44;;;;;;;3.83;1.67;;;;;21.20;99665.00;;;;2078569;28;20245;-54
2023/12/24 01:30:44;;;;;;;2.20;1.23;;;;;21.20;99664.00;;;;2088782;28;20259;-55
2023/12/24 01:31:44;;;;;;;4.13;1.80;;;;;21.20;99653.00;;;;2071034;28;20229;-57
2023/12/24 01:32:45;;;;;;;3.17;1.40;;;;;21.20;99655.00;;;;2084078;28;20260;-55
2023/12/24 01:33:45;;;;;;;2.37;1.40;;;;;21.20;99475.00;;;;2078309;28;20230;-55
2023/12/24 01:34:45;;;;;;;2.37;1.20;;;;;21.20;99649.00;;;;2079718;28;20229;-53
2023/12/24 01:35:47;;;;;;;3.27;1.40;;;;;21.20;99651.00;;;;2075481;28;20843;-52
2023/12/24 01:36:47;;;;;;;3.78;1.40;;;;;21.20;99649.00;;;;2065582;28;20228;-56
2023/12/24 01:37:47;;;;;;;3.87;1.83;;;;;21.20;99652.00;;;;2081062;28;20221;-57
2023/12/24 01:38:48;;;;;;;2.50;1.30;;;;;21.20;99638.00;;;;2085250;28;20233;-53
2023/12/24 01:39:48;;;;;;;3.63;1.80;;;;;21.20;99633.00;;;;2075209;28;20578;-55
2023/12/24 01:40:50;;;;;;;3.43;1.47;;;;;21.20;99613.00;;;;2081476;28;20217;-55
2023/12/24 01:41:50;;;;;;;5.30;1.65;;;;;21.20;99618.00;;;;2076528;28;20248;-53
2023/12/24 01:42:51;;;;;;;3.80;1.70;;;;;21.10;99615.00;;;;2078459;28;20213;-55
2023/12/24 01:43:51;;;;;;;3.00;1.50;;;;;21.10;99614.00;;;;2075580;28;20210;-57
2023/12/24 01:44:51;;;;;;;3.37;1.50;;;;;21.10;99615.00;;;;2081528;28;20344;-54
2023/12/24 01:45:51;;;;;;;3.17;1.37;;;;;21.10;99618.00;;;;2081568;28;20214;-56
2023/12/24 01:46:52;;;;;;;4.20;1.83;;;;;21.10;99611.00;;;;2076394;28;20217;-57
2023/12/24 01:47:52;;;;;;;3.03;1.67;;;;;21.10;99616.00;;;;2079299;28;20229;-53
2023/12/24 01:48:53;;;;;;;4.87;2.13;;;;;21.10;99613.00;;;;2067705;28;20223;-55
2023/12/24 01:49:53;;;;;;;2.80;1.33;;;;;21.10;99622.00;;;;2061414;28;20210;-55
2023/12/24 01:50:53;;;;;;;3.57;1.60;;;;;21.10;99626.00;;;;2067087;28;20306;-53
2023/12/24 01:51:54;;;;;;;2.63;1.33;;;;;21.10;99623.00;;;;2053550;28;20237;-53
2023/12/24 01:52:54;;;;;;;2.20;1.20;;;;;21.10;99580.00;;;;2065970;28;20226;-55
2023/12/24 01:53:55;;;;;;;2.00;1.00;;;;;21.10;99630.00;;;;2065723;28;20245;-54
2023/12/24 01:54:55;;;;;;;3.83;1.83;;;;;21.10;99633.00;;;;2077833;28;20222;-54
2023/12/24 01:55:55;;;;;;;2.30;1.20;;;;;21.10;99633.00;;;;2074745;28;20215;-56
2023/12/24 01:56:56;;;;;;;4.10;1.40;;;;;21.10;99627.00;;;;2066206;28;20323;-55
2023/12/24 01:57:56;;;;;;;5.23;1.40;;;;;21.10;99613.00;;;;2073092;28;20395;-56
2023/12/24 01:58:57;;;;;;;3.47;1.40;;;;;21.10;99628.00;;;;2061204;28;20223;-52
2023/12/24 01:59:57;;;;;;;6.20;1.60;;;;;21.10;99623.00;;;;2057275;28;20310;-52
2023/12/24 02:00:58;;;;;;;3.63;1.47;;;;;21.10;99627.00;;;;2072847;28;20477;-55
2023/12/24 02:01:59;;;;;;;2.70;1.23;;;;;21.10;99640.00;;;;2060520;28;20225;-56
2023/12/24 02:02:59;;;;;;;3.00;1.20;;;;;21.10;99596.00;;;;2057734;28;20223;-54
2023/12/24 02:03:59;;;;;;;4.23;1.10;;;;;21.10;99658.00;;;;2064548;28;20454;-52
2023/12/24 02:05:00;;;;;;;2.23;1.13;;;;;21.10;99552.00;;;;2065043;28;20636;-53
2023/12/24 02:06:00;;;;;;;2.80;1.47;;;;;21.10;99634.00;;;;2055749;28;20581;-57
2023/12/24 02:07:02;;;;;;;3.33;1.17;;;;;21.10;99610.00;;;;2038779;28;20707;-56
2023/12/24 02:08:02;;;;;;;2.60;1.23;;;;;21.10;99627.00;;;;2063624;28;20318;-55
2023/12/24 02:09:02;;;;;;;1.60;0.97;;;;;21.10;99633.00;;;;2059769;28;20223;-56
2023/12/24 02:10:03;;;;;;;2.60;1.27;;;;;21.10;99618.00;;;;2078834;28;20213;-56
2023/12/24 02:11:03;;;;;;;4.60;1.37;;;;;21.10;99617.00;;;;2066282;28;20223;-53
2023/12/24 02:12:04;;;;;;;3.47;1.40;;;;;21.10;99616.00;;;;2062037;28;20222;-52
2023/12/24 02:13:04;;;;;;;2.10;1.20;;;;;21.10;99624.00;;;;2064977;28;20306;-53
2023/12/24 02:14:05;;;;;;;2.30;1.30;;;;;21.10;99555.00;;;;2072789;28;20636;-56
2023/12/24 02:15:05;;;;;;;2.90;1.30;;;;;21.10;99600.00;;;;2079622;28;20241;-55
2023/12/24 02:16:06;;;;;;;4.03;1.47;;;;;21.10;99573.00;;;;2066567;28;20233;-56
2023/12/24 02:17:06;;;;;;;3.93;1.20;;;;;21.10;99612.00;;;;2057757;28;20226;-52
2023/12/24 02:18:06;;;;;;;3.30;1.10;;;;;21.00;99596.00;;;;2065614;28;20234;-54
2023/12/24 02:19:07;;;;;;;1.93;1.00;;;;;21.00;99615.00;;;;2073725;28;20218;-54
2023/12/24 02:20:07;;;;;;;3.63;1.60;;;;;21.00;99584.00;;;;2064214;28;20652;-56
2023/12/24 02:21:08;;;;;;;2.50;1.07;;;;;20.00;99620.00;;;;2057253;28;20246;-55
2023/12/24 02:22:08;;;;;;;3.17;1.10;;;;;21.00;99608.00;;;;2056331;28;20222;-53
2023/12/24 02:23:08;;;;;;;4.47;1.33;;;;;21.00;99596.00;;;;2081519;28;20252;-53
2023/12/24 02:24:09;;;;;;;2.03;1.20;;;;;21.00;99599.00;;;;2074325;28;20264;-56
2023/12/24 02:25:09;;;;;;;3.30;1.20;;;;;21.00;99584.00;;;;2065914;28;20284;-56
2023/12/24 02:26:12;;;;;;;3.20;1.13;;;;;21.00;99584.00;;;;2074189;28;20237;-56
2023/12/24 02:27:40;;;;;;;3.20;1.00;;;;;21.00;99581.00;;;;2081473;28;20225;-54
2023/12/24 02:28:42;;;;;;;4.85;1.30;;;;;21.00;99593.00;;;;2060614;28;20232;-57
2023/12/24 02:29:43;;;;;;;4.75;1.10;;;;;21.00;99589.00;;;;2059505;28;20253;-56
2023/12/24 02:30:44;;;;;;;2.00;0.97;;;;;20.40;99519.00;;;;2069238;28;20249;-56
2023/12/24 02:31:45;;;;;;;2.95;0.98;;;;;21.00;99600.00;;;;2063613;28;20604;-58
2023/12/24 02:32:45;;;;;;;2.30;0.90;;;;;21.00;99594.00;;;;2069333;28;20224;-57
2023/12/24 02:33:46;;;;;;;2.67;0.80;;;;;21.00;99545.00;;;;2066952;28;20272;-59
2023/12/24 02:34:48;;;;;;;2.13;0.90;;;;;21.00;99586.00;;;;2076937;28;20234;-59
2023/12/24 02:35:48;;;;;;;5.85;1.20;;;;;21.00;99587.00;;;;2064716;28;20243;-53
2023/12/24 02:36:49;;;;;;;2.07;1.00;;;;;21.00;99580.00;;;;2064207;28;20240;-57
2023/12/24 02:37:49;;;;;;;2.90;0.93;;;;;21.00;99585.00;;;;2065213;28;20261;-52
2023/12/24 02:38:50;;;;;;;1.87;0.87;;;;;21.00;99572.00;;;;2055717;28;20282;-53
2023/12/24 02:39:51;;;;;;;2.45;0.80;;;;;21.00;99577.00;;;;2064436;28;20278;-57
2023/12/24 02:40:51;;;;;;;1.80;0.90;;;;;21.00;99581.00;;;;2056405;28;20214;-53
2023/12/24 02:41:51;;;;;;;2.37;0.97;;;;;21.00;99581.00;;;;2042729;28;20236;-55
2023/12/24 02:42:52;;;;;;;2.87;1.10;;;;;21.00;99571.00;;;;2072431;28;20222;-55
2023/12/24 02:43:52;;;;;;;3.10;1.07;;;;;21.00;99573.00;;;;2063943;28;20234;-53
2023/12/24 02:44:52;;;;;;;2.50;0.80;;;;;21.00;99565.00;;;;2065074;28;20225;-55
2023/12/24 02:45:53;;;;;;;3.87;1.00;;;;;21.00;99572.00;;;;2083816;28;20213;-56
2023/12/24 02:46:53;;;;;;;3.20;0.80;;;;;21.00;99576.00;;;;2074869;28;20266;-57
2023/12/24 02:47:53;;;;;;;2.30;0.90;;;;;21.00;99578.00;;;;2073397;28;20209;-53
2023/12/24 02:48:54;;;;;;;2.27;1.10;;;;;21.00;99590.00;;;;2073375;28;20229;-53
2023/12/24 02:49:54;;;;;;;2.37;1.00;;;;;21.00;99586.00;;;;2071653;28;20718;-53
2023/12/24 02:50:54;;;;;;;1.87;0.90;;;;;20.90;99593.00;;;;2077924;28;20759;-55
2023/12/24 02:51:55;;;;;;;1.70;0.70;;;;;21.00;99563.00;;;;2071165;28;20719;-53
2023/12/24 02:52:55;;;;;;;1.83;0.80;;;;;21.00;99574.00;;;;2079143;28;20225;-56
2023/12/24 02:53:55;;;;;;;4.03;1.07;;;;;21.00;99573.00;;;;2081863;28;20248;-55
2023/12/24 02:54:56;;;;;;;3.43;0.93;;;;;21.00;99573.00;;;;2071840;28;20698;-57
2023/12/24 02:55:56;;;;;;;2.70;1.07;;;;;20.90;99565.00;;;;2066046;28;20226;-52
2023/12/24 02:56:56;;;;;;;2.03;1.00;;;;;21.00;99564.00;;;;2054929;28;20230;-52
2023/12/24 02:57:57;;;;;;;2.90;1.00;;;;;21.00;99519.00;;;;2082783;28;20213;-55
2023/12/24 02:58:58;;;;;;;3.20;1.07;;;;;20.90;99557.00;;;;2073707;28;20222;-57
2023/12/24 02:59:58;;;;;;;3.23;0.87;;;;;19.70;99568.00;;;;2071592;28;20493;-57
2023/12/24 03:00:58;;;;;;;3.17;1.03;;;;;20.90;99568.00;;;;2076288;28;20228;-53
2023/12/24 03:01:59;;;;;;;3.00;0.90;;;;;20.90;99540.00;;;;2072470;28;20572;-54
2023/12/24 03:03:02;;;;;;;3.27;1.20;;;;;20.90;99552.00;;;;2083869;28;20694;-56
2023/12/24 03:04:02;;;;;;;1.80;0.80;;;;;20.90;99583.00;;;;2077151;28;20226;-57
2023/12/24 03:05:03;;;;;;;1.80;0.70;;;;;20.90;99562.00;;;;2066272;28;20223;-53
2023/12/24 03:06:03;;;;;;;2.30;1.00;;;;;20.90;99562.00;;;;2074765;28;20225;-55
2023/12/24 03:07:04;;;;;;;1.97;0.83;;;;;20.90;99562.00;;;;2067065;28;20295;-53
2023/12/24 03:08:04;;;;;;;2.10;0.80;;;;;20.90;99561.00;;;;2087586;28;20240;-53
2023/12/24 03:09:05;;;;;;;2.60;0.80;;;;;20.90;99553.00;;;;2081254;28;20280;-52
2023/12/24 03:10:05;;;;;;;3.33;0.60;;;;;20.90;99552.00;;;;2072113;28;20294;-53
2023/12/24 03:11:06;;;;;;;2.77;0.97;;;;;20.90;99563.00;;;;2087513;28;20280;-55
2023/12/24 03:12:06;;;;;;;2.17;0.80;;;;;20.90;99545.00;;;;2057633;28;24858;-57
2023/12/24 03:13:07;;;;;;;1.83;0.67;;;;;20.90;99563.00;;;;2070474;28;20230;-53
2023/12/24 03:14:07;;;;;;;3.37;1.20;;;;;20.90;99560.00;;;;2070722;28;20512;-55
2023/12/24 03:15:09;;;;;;;1.83;0.80;;;;;20.90;99486.00;;;;2069382;28;20628;-57
2023/12/24 03:16:09;;;;;;;4.10;0.60;;;;;20.90;99546.00;;;;2078660;28;20221;-53
2023/12/24 03:17:09;;;;;;;2.57;0.93;;;;;20.90;99551.00;;;;2053494;28;20223;-54
2023/12/24 03:18:10;;;;;;;3.47;0.87;;;;;20.70;99548.00;;;;2055746;28;20286;-56
2023/12/24 03:19:10;;;;;;;1.87;0.73;;;;;20.90;99555.00;;;;2074035;28;20218;-55
2023/12/24 03:20:10;;;;;;;2.03;0.80;;;;;20.90;99546.00;;;;2078867;28;20248;-56
2023/12/24 03:21:11;;;;;;;1.87;0.70;;;;;20.90;99546.00;;;;2077433;28;20218;-59
2023/12/24 03:22:11;;;;;;;3.10;0.80;;;;;20.90;99544.00;;;;2069241;28;20218;-56
2023/12/24 03:23:11;;;;;;;3.97;0.90;;;;;20.90;99553.00;;;;2073389;28;20285;-54
2023/12/24 03:24:12;;;;;;;3.47;0.77;;;;;20.90;99574.00;;;;2082472;28;20228;-55
2023/12/24 03:25:12;;;;;;;2.10;0.80;;;;;20.90;99551.00;;;;2065111;28;20234;-54
2023/12/24 03:26:22;;;;;;;3.40;0.70;;;;;20.90;99543.00;;;;2054156;28;20305;-56
2023/12/24 03:27:23;;;;;;;2.60;0.90;;;;;20.90;99490.00;;;;2065793;28;20217;-55
2023/12/24 03:28:24;;;;;;;2.58;0.90;;;;;20.90;99539.00;;;;2056247;28;20211;-52
2023/12/24 03:29:24;;;;;;;2.03;0.83;;;;;20.90;99541.00;;;;2068100;28;20214;-53
2023/12/24 03:30:24;;;;;;;2.70;0.80;;;;;20.20;99542.00;;;;2082092;28;20271;-53
2023/12/24 03:31:26;;;;;;;2.17;0.70;;;;;20.90;99527.00;;;;2072110;28;20209;-54
2023/12/24 03:32:26;;;;;;;2.47;0.70;;;;;20.90;99538.00;;;;2084934;28;20209;-53
2023/12/24 03:33:26;;;;;;;1.87;0.87;;;;;20.90;99537.00;;;;2075154;28;20221;-54
2023/12/24 03:34:27;;;;;;;3.03;1.43;;;;;20.80;99533.00;;;;2081600;28;20214;-53
2023/12/24 03:35:27;;;;;;;1.70;0.60;;;;;20.90;99522.00;;;;2079511;28;20221;-54
2023/12/24 03:36:27;;;;;;;1.60;0.67;;;;;20.90;99515.00;;;;2061505;28;20218;-55
2023/12/24 03:37:28;;;;;;;1.60;0.60;;;;;20.90;99524.00;;;;2086842;28;20212;-55
2023/12/24 03:38:28;;;;;;;1.50;0.60;;;;;20.90;99515.00;;;;2081828;28;20221;-54
2023/12/24 03:39:28;;;;;;;1.67;0.67;;;;;20.90;99517.00;;;;2079521;28;20678;-53
2023/12/24 03:40:28;;;;;;;1.63;0.60;;;;;20.90;99515.00;;;;2079594;28;20588;-53
2023/12/24 03:41:29;;;;;;;2.67;0.90;;;;;20.90;99508.00;;;;2066348;28;20209;-55
2023/12/24 03:42:29;;;;;;;1.47;0.63;;;;;20.90;99512.00;;;;2081874;28;20209;-55
2023/12/24 03:43:30;;;;;;;2.80;0.80;;;;;20.90;99504.00;;;;2081418;28;20913;-55
2023/12/24 03:44:30;;;;;;;3.07;0.80;;;;;20.90;99512.00;;;;2078033;28;20237;-57
2023/12/24 03:45:32;;;;;;;1.70;0.60;;;;;20.90;99515.00;;;;2071211;28;20215;-57
2023/12/24 03:46:33;;;;;;;1.30;0.60;;;;;20.90;99508.00;;;;2064419;28;20706;-53
2023/12/24 03:47:34;;;;;;;2.53;0.80;;;;;20.90;99482.00;;;;2072516;28;20218;-52
2023/12/24 03:48:35;;;;;;;2.67;0.77;;;;;20.80;99506.00;;;;2075860;28;20224;-55
2023/12/24 03:49:36;;;;;;;1.75;0.80;;;;;20.80;99512.00;;;;2084826;28;20217;-57
2023/12/24 03:50:36;;;;;;;1.63;0.67;;;;;20.90;99487.00;;;;2083332;28;20933;-57
2023/12/24 03:51:36;;;;;;;1.60;0.60;;;;;20.90;99519.00;;;;2062225;28;20230;-53
2023/12/24 03:52:37;;;;;;;1.40;0.73;;;;;20.80;99515.00;;;;2072551;28;20260;-52
2023/12/24 03:53:37;;;;;;;1.50;0.50;;;;;20.90;99517.00;;;;2058002;28;20225;-52
2023/12/24 03:54:38;;;;;;;1.30;0.50;;;;;20.80;99517.00;;;;2066079;28;20211;-57
2023/12/24 03:55:38;;;;;;;1.80;0.60;;;;;20.90;99520.00;;;;2071140;28;20214;-56
2023/12/24 03:56:39;;;;;;;2.10;0.70;;;;;20.80;99499.00;;;;2069605;28;20256;-56
2023/12/24 03:57:39;;;;;;;1.63;0.70;;;;;20.80;99560.00;;;;2071861;28;20205;-57
2023/12/24 03:58:39;;;;;;;1.80;0.47;;;;;20.80;99516.00;;;;2071581;28;20640;-54
2023/12/24 03:59:40;;;;;;;1.17;0.50;;;;;20.80;99507.00;;;;2066597;28;20623;-55
2023/12/24 04:00:40;;;;;;;1.33;0.40;;;;;20.80;99508.00;;;;2075369;28;20226;-56
2023/12/24 04:01:40;;;;;;;1.63;0.60;;;;;20.80;99507.00;;;;2064481;28;20249;-56
2023/12/24 04:02:41;;;;;;;1.50;0.50;;;;;20.80;99514.00;;;;2069312;28;20235;-56
2023/12/24 04:03:41;;;;;;;1.43;0.50;;;;;20.80;99519.00;;;;2076460;28;20209;-56
2023/12/24 04:04:46;;;;;;;2.10;0.60;;;;;20.80;99510.00;;;;2070456;28;20216;-57
2023/12/24 04:05:47;;;;;;;1.85;0.60;;;;;20.80;99521.00;;;;2078525;28;20835;-57
2023/12/24 04:06:47;;;;;;;1.93;0.50;;;;;20.80;99519.00;;;;2063132;28;20228;-56
2023/12/24 04:07:47;;;;;;;1.10;0.47;;;;;20.80;99505.00;;;;2074165;28;20213;-56
2023/12/24 04:08:48;;;;;;;1.80;0.50;;;;;20.80;99498.00;;;;2080747;28;20283;-56
2023/12/24 04:09:48;;;;;;;1.27;0.40;;;;;20.80;99516.00;;;;2076807;28;21007;-54
2023/12/24 04:10:48;;;;;;;1.40;0.40;;;;;20.80;99515.00;;;;2060045;28;20254;-55
2023/12/24 04:11:49;;;;;;;2.30;0.50;;;;;20.80;99506.00;;;;2050927;28;20211;-56
2023/12/24 04:12:49;;;;;;;1.13;0.40;;;;;20.80;99504.00;;;;2077381;28;20283;-55
2023/12/24 04:13:49;;;;;;;1.57;0.53;;;;;20.80;99490.00;;;;2073301;28;20919;-56
2023/12/24 04:14:50;;;;;;;1.53;0.50;;;;;20.80;99503.00;;;;2071324;28;20234;-56
2023/12/24 04:15:50;;;;;;;1.30;0.60;;;;;20.80;99593.00;;;;2073245;28;20252;-56
2023/12/24 04:16:50;;;;;;;1.53;0.50;;;;;20.80;99498.00;;;;2062640;28;20217;-55
2023/12/24 04:17:51;;;;;;;1.43;0.40;;;;;20.80;99491.00;;;;2072857;28;20696;-57
2023/12/24 04:18:51;;;;;;;1.93;0.50;;;;;20.80;99490.00;;;;2071096;28;20634;-56
2023/12/24 04:19:51;;;;;;;1.47;0.50;;;;;20.80;99499.00;;;;2069406;28;20237;-56
2023/12/24 04:20:52;;;;;;;1.33;0.50;;;;;20.80;99490.00;;;;2069100;28;20715;-56
2023/12/24 04:21:52;;;;;;;1.67;0.50;;;;;20.80;99497.00;;;;2062665;28;20636;-56
2023/12/24 04:22:52;;;;;;;1.33;0.50;;;;;20.80;99489.00;;;;2076875;28;20686;-56
2023/12/24 04:23:53;;;;;;;1.17;0.40;;;;;20.80;99489.00;;;;2073751;28;20913;-53
2023/12/24 04:24:53;;;;;;;1.20;0.50;;;;;20.80;99480.00;;;;2073747;28;20214;-55
2023/12/24 04:25:53;;;;;;;1.37;0.40;;;;;20.80;99492.00;;;;2069789;28;20443;-54
2023/12/24 04:26:54;;;;;;;1.10;0.50;;;;;20.80;99493.00;;;;2062342;28;20218;-56
2023/12/24 04:27:54;;;;;;;1.97;0.40;;;;;20.80;99498.00;;;;2074977;28;20632;-56
2023/12/24 04:28:54;;;;;;;1.10;0.40;;;;;20.70;99485.00;;;;2079321;28;20781;-56
2023/12/24 04:29:55;;;;;;;1.03;0.30;;;;;20.80;99490.00;;;;2076491;28;20226;-55
2023/12/24 04:30:55;;;;;;;2.00;0.50;;;;;20.80;99468.00;;;;2071105;28;20236;-54
2023/12/24 04:31:55;;;;;;;1.47;0.50;;;;;20.80;99481.00;;;;2064226;28;20218;-54
2023/12/24 04:32:56;;;;;;;1.30;0.70;;;;;20.80;99468.00;;;;2069669;28;20226;-55
2023/12/24 04:33:56;;;;;;;1.83;0.57;;;;;20.80;99480.00;;;;2071833;28;20313;-56
2023/12/24 04:34:56;;;;;;;1.30;0.40;;;;;20.80;99470.00;;;;2070319;28;20595;-56
2023/12/24 04:35:57;;;;;;;1.00;0.40;;;;;20.80;99477.00;;;;2075909;28;20968;-56
2023/12/24 04:36:57;;;;;;;1.53;0.57;;;;;20.80;99465.00;;;;2069930;28;20340;-56
2023/12/24 04:37:58;;;;;;;2.00;0.67;;;;;20.80;99476.00;;;;2078429;28;20264;-54
2023/12/24 04:38:59;;;;;;;1.65;0.52;;;;;20.80;99477.00;;;;2075710;28;20218;-56
2023/12/24 04:39:59;;;;;;;1.13;0.43;;;;;20.80;99468.00;;;;2073597;28;20252;-56
2023/12/24 04:40:59;;;;;;;1.67;0.40;;;;;20.70;99545.00;;;;2078206;28;20213;-56
2023/12/24 04:42:00;;;;;;;1.20;0.40;;;;;20.80;99467.00;;;;2063608;28;20678;-54
2023/12/24 04:43:00;;;;;;;1.07;0.40;;;;;20.80;99480.00;;;;2076774;28;21075;-55
2023/12/24 04:44:00;;;;;;;1.10;0.40;;;;;20.80;99478.00;;;;2076444;28;20211;-55
2023/12/24 04:45:01;;;;;;;1.10;0.50;;;;;20.70;99468.00;;;;2071639;28;20212;-56
2023/12/24 04:46:01;;;;;;;1.50;0.40;;;;;20.60;99474.00;;;;2064285;28;20227;-57
2023/12/24 04:47:02;;;;;;;1.20;0.33;;;;;20.80;99472.00;;;;2052198;28;20223;-56
2023/12/24 04:48:03;;;;;;;1.38;0.40;;;;;20.80;99479.00;;;;2075859;28;20570;-56
2023/12/24 04:49:03;;;;;;;1.40;0.40;;;;;20.70;99482.00;;;;2075611;28;20226;-54
2023/12/24 04:50:04;;;;;;;1.00;0.33;;;;;20.70;99478.00;;;;2075606;28;20232;-54
2023/12/24 04:51:05;;;;;;;1.38;0.32;;;;;20.70;99479.00;;;;2078598;28;20222;-54
2023/12/24 04:52:06;;;;;;;2.85;0.40;;;;;20.70;99482.00;;;;2068665;28;20217;-55
2023/12/24 04:53:06;;;;;;;1.20;0.40;;;;;20.00;99472.00;;;;2079900;28;20317;-54
2023/12/24 04:54:07;;;;;;;1.20;0.40;;;;;20.70;99474.00;;;;2071913;28;20214;-55
2023/12/24 04:55:08;;;;;;;1.17;0.40;;;;;20.70;99477.00;;;;2079101;28;20239;-55
2023/12/24 04:56:18;;;;;;;1.10;0.45;;;;;20.70;99467.00;;;;2080639;28;20264;-55
2023/12/24 04:57:18;;;;;;;1.10;0.40;;;;;20.70;99464.00;;;;2079560;28;20236;-57
2023/12/24 04:58:19;;;;;;;1.23;0.50;;;;;20.70;99468.00;;;;2079368;28;20702;-53
2023/12/24 04:59:19;;;;;;;1.10;0.50;;;;;20.70;99463.00;;;;2078148;28;20252;-54
2023/12/24 05:00:19;;;;;;;0.90;0.30;;;;;20.70;99465.00;;;;2077092;28;20228;-55
2023/12/24 05:01:20;;;;;;;1.00;0.40;;;;;20.70;99465.00;;;;2068497;28;20217;-56
2023/12/24 05:02:20;;;;;;;1.77;0.40;;;;;20.70;99474.00;;;;2079822;28;20217;-56
2023/12/24 05:03:20;;;;;;;1.00;0.37;;;;;20.70;99472.00;;;;2074819;28;20217;-56
2023/12/24 05:04:21;;;;;;;1.20;0.30;;;;;20.70;99459.00;;;;2070667;28;20228;-54